sensor_id;sensor_type;location;lat;lon;timestamp;temperature;humidity
3418;DHT22;68007;51.312;12.372;2024-03-02T00:01:42;11.50;89.50
3418;DHT22;68007;51.312;12.372;2024-03-02T00:04:09;11.40;89.50
3418;DHT22;68007;51.312;12.372;2024-03-02T00:06:37;11.40;89.60
3418;DHT22;68007;51.312;12.372;2024-03-02T00:09:05;11.40;89.60
3418;DHT22;68007;51.312;12.372;2024-03-02T00:11:36;11.40;89.60
3418;DHT22;68007;51.312;12.372;2024-03-02T00:14:04;11.40;89.60
3418;DHT22;68007;51.312;12.372;2024-03-02T00:16:31;11.40;89.60
3418;DHT22;68007;51.312;12.372;2024-03-02T00:19:02;11.40;89.60
3418;DHT22;68007;51.312;12.372;2024-03-02T00:21:31;11.40;89.60
3418;DHT22;68007;51.312;12.372;2024-03-02T00:23:59;11.40;89.60
3418;DHT22;68007;51.312;12.372;2024-03-02T00:26:29;11.40;89.60
3418;DHT22;68007;51.312;12.372;2024-03-02T00:28:59;11.40;89.60
3418;DHT22;68007;51.312;12.372;2024-03-02T00:31:26;11.40;89.60
3418;DHT22;68007;51.312;12.372;2024-03-02T00:33:54;11.40;89.60
3418;DHT22;68007;51.312;12.372;2024-03-02T00:36:24;11.40;89.70
3418;DHT22;68007;51.312;12.372;2024-03-02T00:38:54;11.40;89.70
3418;DHT22;68007;51.312;12.372;2024-03-02T00:41:24;11.40;89.80
3418;DHT22;68007;51.312;12.372;2024-03-02T00:44:00;11.40;89.80
3418;DHT22;68007;51.312;12.372;2024-03-02T00:46:29;11.40;89.80
3418;DHT22;68007;51.312;12.372;2024-03-02T00:48:58;11.40;89.90
3418;DHT22;68007;51.312;12.372;2024-03-02T00:51:27;11.40;90.00
3418;DHT22;68007;51.312;12.372;2024-03-02T00:53:57;11.40;90.00
3418;DHT22;68007;51.312;12.372;2024-03-02T00:56:25;11.40;90.00
3418;DHT22;68007;51.312;12.372;2024-03-02T00:58:53;11.40;90.00
3418;DHT22;68007;51.312;12.372;2024-03-02T01:01:22;11.40;90.00
3418;DHT22;68007;51.312;12.372;2024-03-02T01:03:50;11.40;90.00
3418;DHT22;68007;51.312;12.372;2024-03-02T01:06:17;11.40;90.00
3418;DHT22;68007;51.312;12.372;2024-03-02T01:08:45;11.40;90.00
3418;DHT22;68007;51.312;12.372;2024-03-02T01:11:16;11.30;90.00
3418;DHT22;68007;51.312;12.372;2024-03-02T01:13:45;11.40;90.00
3418;DHT22;68007;51.312;12.372;2024-03-02T01:16:13;11.30;90.00
3418;DHT22;68007;51.312;12.372;2024-03-02T01:18:43;11.40;90.10
3418;DHT22;68007;51.312;12.372;2024-03-02T01:21:11;11.30;90.10
3418;DHT22;68007;51.312;12.372;2024-03-02T01:23:38;11.30;90.10
3418;DHT22;68007;51.312;12.372;2024-03-02T01:26:06;11.30;90.10
3418;DHT22;68007;51.312;12.372;2024-03-02T01:28:33;11.30;90.40
3418;DHT22;68007;51.312;12.372;2024-03-02T01:31:01;11.30;90.20
3418;DHT22;68007;51.312;12.372;2024-03-02T01:33:28;11.30;90.20
3418;DHT22;68007;51.312;12.372;2024-03-02T01:35:57;11.30;90.20
3418;DHT22;68007;51.312;12.372;2024-03-02T01:38:24;11.30;90.40
3418;DHT22;68007;51.312;12.372;2024-03-02T01:40:52;11.30;90.20
3418;DHT22;68007;51.312;12.372;2024-03-02T01:43:21;11.30;90.50
3418;DHT22;68007;51.312;12.372;2024-03-02T01:45:48;11.30;90.20
3418;DHT22;68007;51.312;12.372;2024-03-02T01:48:16;11.30;90.20
3418;DHT22;68007;51.312;12.372;2024-03-02T01:50:43;11.30;90.20
3418;DHT22;68007;51.312;12.372;2024-03-02T01:53:12;11.30;90.20
3418;DHT22;68007;51.312;12.372;2024-03-02T01:55:40;11.30;90.20
3418;DHT22;68007;51.312;12.372;2024-03-02T01:58:07;11.30;90.20
3418;DHT22;68007;51.312;12.372;2024-03-02T02:00:35;11.30;90.20
3418;DHT22;68007;51.312;12.372;2024-03-02T02:03:03;11.30;90.20
3418;DHT22;68007;51.312;12.372;2024-03-02T02:05:31;11.30;90.20
3418;DHT22;68007;51.312;12.372;2024-03-02T02:07:58;11.30;90.30
3418;DHT22;68007;51.312;12.372;2024-03-02T02:10:27;11.30;90.20
3418;DHT22;68007;51.312;12.372;2024-03-02T02:12:55;11.30;90.30
3418;DHT22;68007;51.312;12.372;2024-03-02T02:15:24;11.30;90.30
3418;DHT22;68007;51.312;12.372;2024-03-02T02:17:52;11.20;90.30
3418;DHT22;68007;51.312;12.372;2024-03-02T02:20:20;11.20;90.20
3418;DHT22;68007;51.312;12.372;2024-03-02T02:22:58;11.20;90.20
3418;DHT22;68007;51.312;12.372;2024-03-02T02:25:26;11.30;90.20
3418;DHT22;68007;51.312;12.372;2024-03-02T02:27:55;11.30;90.20
3418;DHT22;68007;51.312;12.372;2024-03-02T02:30:25;11.20;90.20
3418;DHT22;68007;51.312;12.372;2024-03-02T02:32:53;11.30;90.20
3418;DHT22;68007;51.312;12.372;2024-03-02T02:35:21;11.30;90.20
3418;DHT22;68007;51.312;12.372;2024-03-02T02:37:49;11.30;90.20
3418;DHT22;68007;51.312;12.372;2024-03-02T02:40:19;11.30;90.20
3418;DHT22;68007;51.312;12.372;2024-03-02T02:42:46;11.30;90.20
3418;DHT22;68007;51.312;12.372;2024-03-02T02:45:14;11.30;90.20
3418;DHT22;68007;51.312;12.372;2024-03-02T02:47:42;11.30;90.30
3418;DHT22;68007;51.312;12.372;2024-03-02T02:50:10;11.30;90.30
3418;DHT22;68007;51.312;12.372;2024-03-02T02:52:39;11.20;90.20
3418;DHT22;68007;51.312;12.372;2024-03-02T02:55:08;11.20;90.20
3418;DHT22;68007;51.312;12.372;2024-03-02T02:57:39;11.30;90.20
3418;DHT22;68007;51.312;12.372;2024-03-02T03:00:10;11.30;90.30
3418;DHT22;68007;51.312;12.372;2024-03-02T03:02:40;11.20;90.20
3418;DHT22;68007;51.312;12.372;2024-03-02T03:05:09;11.20;90.20
3418;DHT22;68007;51.312;12.372;2024-03-02T03:07:37;11.30;90.20
3418;DHT22;68007;51.312;12.372;2024-03-02T03:10:07;11.30;90.20
3418;DHT22;68007;51.312;12.372;2024-03-02T03:12:36;11.30;90.20
3418;DHT22;68007;51.312;12.372;2024-03-02T03:15:05;11.30;90.20
3418;DHT22;68007;51.312;12.372;2024-03-02T03:17:33;11.30;90.20
3418;DHT22;68007;51.312;12.372;2024-03-02T03:20:01;11.30;90.20
3418;DHT22;68007;51.312;12.372;2024-03-02T03:22:30;11.20;90.10
3418;DHT22;68007;51.312;12.372;2024-03-02T03:24:57;11.30;90.20
3418;DHT22;68007;51.312;12.372;2024-03-02T03:27:25;11.30;90.20
3418;DHT22;68007;51.312;12.372;2024-03-02T03:29:55;11.30;90.10
3418;DHT22;68007;51.312;12.372;2024-03-02T03:32:22;11.30;90.10
3418;DHT22;68007;51.312;12.372;2024-03-02T03:34:50;11.30;90.10
3418;DHT22;68007;51.312;12.372;2024-03-02T03:37:17;11.30;90.10
3418;DHT22;68007;51.312;12.372;2024-03-02T03:39:45;11.30;90.10
3418;DHT22;68007;51.312;12.372;2024-03-02T03:42:12;11.30;90.10
3418;DHT22;68007;51.312;12.372;2024-03-02T03:44:39;11.30;90.10
3418;DHT22;68007;51.312;12.372;2024-03-02T03:47:09;11.30;90.10
3418;DHT22;68007;51.312;12.372;2024-03-02T03:49:36;11.30;90.10
3418;DHT22;68007;51.312;12.372;2024-03-02T03:52:04;11.30;90.10
3418;DHT22;68007;51.312;12.372;2024-03-02T03:54:32;11.30;90.00
3418;DHT22;68007;51.312;12.372;2024-03-02T03:56:59;11.30;90.00
3418;DHT22;68007;51.312;12.372;2024-03-02T03:59:27;11.30;90.00
3418;DHT22;68007;51.312;12.372;2024-03-02T04:01:54;11.30;90.00
3418;DHT22;68007;51.312;12.372;2024-03-02T04:04:23;11.30;90.00
3418;DHT22;68007;51.312;12.372;2024-03-02T04:06:50;11.30;90.00
3418;DHT22;68007;51.312;12.372;2024-03-02T04:09:18;11.30;90.10
3418;DHT22;68007;51.312;12.372;2024-03-02T04:11:45;11.30;90.10
3418;DHT22;68007;51.312;12.372;2024-03-02T04:14:13;11.30;90.10
3418;DHT22;68007;51.312;12.372;2024-03-02T04:16:40;11.30;90.10
3418;DHT22;68007;51.312;12.372;2024-03-02T04:19:08;11.30;90.10
3418;DHT22;68007;51.312;12.372;2024-03-02T04:21:37;11.30;90.10
3418;DHT22;68007;51.312;12.372;2024-03-02T04:24:05;11.30;90.10
3418;DHT22;68007;51.312;12.372;2024-03-02T04:26:32;11.30;90.10
3418;DHT22;68007;51.312;12.372;2024-03-02T04:29:00;11.20;90.10
3418;DHT22;68007;51.312;12.372;2024-03-02T04:31:28;11.20;90.10
3418;DHT22;68007;51.312;12.372;2024-03-02T04:33:55;11.20;90.10
3418;DHT22;68007;51.312;12.372;2024-03-02T04:36:23;11.20;90.10
3418;DHT22;68007;51.312;12.372;2024-03-02T04:38:52;11.20;90.10
3418;DHT22;68007;51.312;12.372;2024-03-02T04:41:19;11.20;90.00
3418;DHT22;68007;51.312;12.372;2024-03-02T04:43:47;11.20;90.00
3418;DHT22;68007;51.312;12.372;2024-03-02T04:46:14;11.20;90.00
3418;DHT22;68007;51.312;12.372;2024-03-02T04:48:42;11.20;90.00
3418;DHT22;68007;51.312;12.372;2024-03-02T04:51:10;11.20;90.00
3418;DHT22;68007;51.312;12.372;2024-03-02T04:53:37;11.20;90.00
3418;DHT22;68007;51.312;12.372;2024-03-02T04:56:06;11.30;90.00
3418;DHT22;68007;51.312;12.372;2024-03-02T04:58:51;11.20;90.00
3418;DHT22;68007;51.312;12.372;2024-03-02T05:01:19;11.20;90.00
3418;DHT22;68007;51.312;12.372;2024-03-02T05:03:46;11.30;90.00
3418;DHT22;68007;51.312;12.372;2024-03-02T05:06:14;11.20;90.00
3418;DHT22;68007;51.312;12.372;2024-03-02T05:08:41;11.20;90.00
3418;DHT22;68007;51.312;12.372;2024-03-02T05:11:12;11.20;90.00
3418;DHT22;68007;51.312;12.372;2024-03-02T05:13:57;11.20;90.00
3418;DHT22;68007;51.312;12.372;2024-03-02T05:16:24;11.20;90.00
3418;DHT22;68007;51.312;12.372;2024-03-02T05:18:52;11.20;90.00
3418;DHT22;68007;51.312;12.372;2024-03-02T05:21:19;11.20;90.00
3418;DHT22;68007;51.312;12.372;2024-03-02T05:23:47;11.20;90.00
3418;DHT22;68007;51.312;12.372;2024-03-02T05:26:16;11.20;90.00
3418;DHT22;68007;51.312;12.372;2024-03-02T05:28:43;11.20;90.00
3418;DHT22;68007;51.312;12.372;2024-03-02T05:31:11;11.20;90.00
3418;DHT22;68007;51.312;12.372;2024-03-02T05:33:42;11.20;90.00
3418;DHT22;68007;51.312;12.372;2024-03-02T05:36:09;11.10;90.00
3418;DHT22;68007;51.312;12.372;2024-03-02T05:38:37;11.10;90.00
3418;DHT22;68007;51.312;12.372;2024-03-02T05:41:05;11.10;90.00
3418;DHT22;68007;51.312;12.372;2024-03-02T05:43:33;11.10;90.00
3418;DHT22;68007;51.312;12.372;2024-03-02T05:46:01;11.10;90.00
3418;DHT22;68007;51.312;12.372;2024-03-02T05:48:28;11.10;90.30
3418;DHT22;68007;51.312;12.372;2024-03-02T05:50:56;11.10;90.10
3418;DHT22;68007;51.312;12.372;2024-03-02T05:53:23;11.10;90.00
3418;DHT22;68007;51.312;12.372;2024-03-02T05:55:51;11.10;90.00
3418;DHT22;68007;51.312;12.372;2024-03-02T05:58:22;11.10;90.00
3418;DHT22;68007;51.312;12.372;2024-03-02T06:01:04;11.10;90.00
3418;DHT22;68007;51.312;12.372;2024-03-02T06:03:32;11.10;90.00
3418;DHT22;68007;51.312;12.372;2024-03-02T06:06:00;11.10;90.00
3418;DHT22;68007;51.312;12.372;2024-03-02T06:08:27;11.10;90.00
3418;DHT22;68007;51.312;12.372;2024-03-02T06:10:55;11.10;90.00
3418;DHT22;68007;51.312;12.372;2024-03-02T06:13:22;11.10;90.00
3418;DHT22;68007;51.312;12.372;2024-03-02T06:15:51;11.10;90.00
3418;DHT22;68007;51.312;12.372;2024-03-02T06:18:21;11.10;90.00
3418;DHT22;68007;51.312;12.372;2024-03-02T06:20:48;11.10;90.00
3418;DHT22;68007;51.312;12.372;2024-03-02T06:23:16;11.10;89.90
3418;DHT22;68007;51.312;12.372;2024-03-02T06:25:44;11.10;90.00
3418;DHT22;68007;51.312;12.372;2024-03-02T06:28:11;11.10;90.00
3418;DHT22;68007;51.312;12.372;2024-03-02T06:30:41;11.10;90.30
3418;DHT22;68007;51.312;12.372;2024-03-02T06:33:09;11.20;90.00
3418;DHT22;68007;51.312;12.372;2024-03-02T06:35:37;11.10;89.90
3418;DHT22;68007;51.312;12.372;2024-03-02T06:38:05;11.20;90.00
3418;DHT22;68007;51.312;12.372;2024-03-02T06:40:32;11.20;90.20
3418;DHT22;68007;51.312;12.372;2024-03-02T06:43:00;11.20;89.90
3418;DHT22;68007;51.312;12.372;2024-03-02T06:45:27;11.20;89.90
3418;DHT22;68007;51.312;12.372;2024-03-02T06:47:57;11.20;89.80
3418;DHT22;68007;51.312;12.372;2024-03-02T06:50:24;11.20;89.80
3418;DHT22;68007;51.312;12.372;2024-03-02T06:52:54;11.20;89.80
3418;DHT22;68007;51.312;12.372;2024-03-02T06:55:22;11.20;89.80
3418;DHT22;68007;51.312;12.372;2024-03-02T06:57:50;11.20;89.80
3418;DHT22;68007;51.312;12.372;2024-03-02T07:00:18;11.20;89.80
3418;DHT22;68007;51.312;12.372;2024-03-02T07:02:46;11.20;89.90
3418;DHT22;68007;51.312;12.372;2024-03-02T07:05:14;11.20;89.90
3418;DHT22;68007;51.312;12.372;2024-03-02T07:07:42;11.20;89.90
3418;DHT22;68007;51.312;12.372;2024-03-02T07:10:10;11.20;89.90
3418;DHT22;68007;51.312;12.372;2024-03-02T07:12:38;11.20;90.20
3418;DHT22;68007;51.312;12.372;2024-03-02T07:15:06;11.20;89.90
3418;DHT22;68007;51.312;12.372;2024-03-02T07:18:03;11.20;89.90
3418;DHT22;68007;51.312;12.372;2024-03-02T07:20:31;11.20;90.00
3418;DHT22;68007;51.312;12.372;2024-03-02T07:22:58;11.20;90.00
3418;DHT22;68007;51.312;12.372;2024-03-02T07:25:27;11.20;90.00
3418;DHT22;68007;51.312;12.372;2024-03-02T07:27:55;11.20;89.90
3418;DHT22;68007;51.312;12.372;2024-03-02T07:30:22;11.20;90.00
3418;DHT22;68007;51.312;12.372;2024-03-02T07:32:50;11.20;90.00
3418;DHT22;68007;51.312;12.372;2024-03-02T07:35:17;11.20;90.00
3418;DHT22;68007;51.312;12.372;2024-03-02T07:37:45;11.20;90.00
3418;DHT22;68007;51.312;12.372;2024-03-02T07:40:13;11.20;90.00
3418;DHT22;68007;51.312;12.372;2024-03-02T07:42:41;11.20;90.10
3418;DHT22;68007;51.312;12.372;2024-03-02T07:45:09;11.20;90.10
3418;DHT22;68007;51.312;12.372;2024-03-02T07:47:37;11.20;90.10
3418;DHT22;68007;51.312;12.372;2024-03-02T07:50:05;11.20;90.10
3418;DHT22;68007;51.312;12.372;2024-03-02T07:52:33;11.20;90.10
3418;DHT22;68007;51.312;12.372;2024-03-02T07:55:01;11.20;90.10
3418;DHT22;68007;51.312;12.372;2024-03-02T07:57:28;11.30;90.10
3418;DHT22;68007;51.312;12.372;2024-03-02T07:59:57;11.20;90.10
3418;DHT22;68007;51.312;12.372;2024-03-02T08:02:25;11.30;90.10
3418;DHT22;68007;51.312;12.372;2024-03-02T08:04:53;11.30;90.20
3418;DHT22;68007;51.312;12.372;2024-03-02T08:07:20;11.30;90.10
3418;DHT22;68007;51.312;12.372;2024-03-02T08:09:48;11.30;90.10
3418;DHT22;68007;51.312;12.372;2024-03-02T08:12:15;11.30;90.10
3418;DHT22;68007;51.312;12.372;2024-03-02T08:14:44;11.30;90.10
3418;DHT22;68007;51.312;12.372;2024-03-02T08:17:13;11.30;90.20
3418;DHT22;68007;51.312;12.372;2024-03-02T08:19:41;11.30;90.40
3418;DHT22;68007;51.312;12.372;2024-03-02T08:22:08;11.30;90.10
3418;DHT22;68007;51.312;12.372;2024-03-02T08:24:36;11.30;90.10
3418;DHT22;68007;51.312;12.372;2024-03-02T08:27:04;11.40;90.40
3418;DHT22;68007;51.312;12.372;2024-03-02T08:29:31;11.40;90.10
3418;DHT22;68007;51.312;12.372;2024-03-02T08:31:59;11.40;90.20
3418;DHT22;68007;51.312;12.372;2024-03-02T08:34:27;11.40;90.20
3418;DHT22;68007;51.312;12.372;2024-03-02T08:36:55;11.40;90.10
3418;DHT22;68007;51.312;12.372;2024-03-02T08:39:23;11.40;90.20
3418;DHT22;68007;51.312;12.372;2024-03-02T08:41:50;11.40;90.20
3418;DHT22;68007;51.312;12.372;2024-03-02T08:44:18;11.40;90.20
3418;DHT22;68007;51.312;12.372;2024-03-02T08:46:45;11.40;90.20
3418;DHT22;68007;51.312;12.372;2024-03-02T08:49:13;11.40;90.10
3418;DHT22;68007;51.312;12.372;2024-03-02T08:51:42;11.40;90.10
3418;DHT22;68007;51.312;12.372;2024-03-02T08:54:10;11.50;90.20
3418;DHT22;68007;51.312;12.372;2024-03-02T08:56:37;11.50;90.10
3418;DHT22;68007;51.312;12.372;2024-03-02T08:59:05;11.50;90.20
3418;DHT22;68007;51.312;12.372;2024-03-02T09:01:32;11.50;90.20
3418;DHT22;68007;51.312;12.372;2024-03-02T09:04:00;11.50;90.40
3418;DHT22;68007;51.312;12.372;2024-03-02T09:06:27;11.50;90.30
3418;DHT22;68007;51.312;12.372;2024-03-02T09:08:56;11.50;90.30
3418;DHT22;68007;51.312;12.372;2024-03-02T09:11:24;11.50;90.40
3418;DHT22;68007;51.312;12.372;2024-03-02T09:13:51;11.50;90.30
3418;DHT22;68007;51.312;12.372;2024-03-02T09:16:19;11.50;90.30
3418;DHT22;68007;51.312;12.372;2024-03-02T09:18:46;11.60;90.30
3418;DHT22;68007;51.312;12.372;2024-03-02T09:21:14;11.60;90.40
3418;DHT22;68007;51.312;12.372;2024-03-02T09:23:42;11.60;90.60
3418;DHT22;68007;51.312;12.372;2024-03-02T09:26:13;11.60;90.60
3418;DHT22;68007;51.312;12.372;2024-03-02T09:28:42;11.60;90.60
3418;DHT22;68007;51.312;12.372;2024-03-02T09:31:10;11.60;90.60
3418;DHT22;68007;51.312;12.372;2024-03-02T09:33:38;11.60;90.60
3418;DHT22;68007;51.312;12.372;2024-03-02T09:36:12;11.60;90.60
3418;DHT22;68007;51.312;12.372;2024-03-02T09:38:43;11.60;90.60
3418;DHT22;68007;51.312;12.372;2024-03-02T09:41:13;11.70;90.70
3418;DHT22;68007;51.312;12.372;2024-03-02T09:43:41;11.70;90.90
3418;DHT22;68007;51.312;12.372;2024-03-02T09:46:09;11.70;90.80
3418;DHT22;68007;51.312;12.372;2024-03-02T09:48:37;11.70;90.80
3418;DHT22;68007;51.312;12.372;2024-03-02T09:51:05;11.70;90.90
3418;DHT22;68007;51.312;12.372;2024-03-02T09:53:33;11.70;90.90
3418;DHT22;68007;51.312;12.372;2024-03-02T09:56:01;11.70;90.90
3418;DHT22;68007;51.312;12.372;2024-03-02T09:58:30;11.70;90.90
3418;DHT22;68007;51.312;12.372;2024-03-02T10:00:58;11.70;90.90
3418;DHT22;68007;51.312;12.372;2024-03-02T10:03:26;11.70;91.00
3418;DHT22;68007;51.312;12.372;2024-03-02T10:05:56;11.80;91.00
3418;DHT22;68007;51.312;12.372;2024-03-02T10:08:23;11.70;91.10
3418;DHT22;68007;51.312;12.372;2024-03-02T10:10:52;11.80;91.10
3418;DHT22;68007;51.312;12.372;2024-03-02T10:13:19;11.80;91.20
3418;DHT22;68007;51.312;12.372;2024-03-02T10:15:54;11.80;91.30
3418;DHT22;68007;51.312;12.372;2024-03-02T10:18:26;11.80;91.30
3418;DHT22;68007;51.312;12.372;2024-03-02T10:20:55;11.80;91.20
3418;DHT22;68007;51.312;12.372;2024-03-02T10:23:38;11.80;91.30
3418;DHT22;68007;51.312;12.372;2024-03-02T10:26:16;11.90;91.40
3418;DHT22;68007;51.312;12.372;2024-03-02T10:28:46;11.90;91.70
3418;DHT22;68007;51.312;12.372;2024-03-02T10:31:16;11.90;91.80
3418;DHT22;68007;51.312;12.372;2024-03-02T10:33:44;11.90;91.80
3418;DHT22;68007;51.312;12.372;2024-03-02T10:36:12;12.00;92.00
3418;DHT22;68007;51.312;12.372;2024-03-02T10:38:40;12.00;92.00
3418;DHT22;68007;51.312;12.372;2024-03-02T10:41:08;12.00;92.10
3418;DHT22;68007;51.312;12.372;2024-03-02T10:43:36;12.00;92.10
3418;DHT22;68007;51.312;12.372;2024-03-02T10:46:04;12.10;92.00
3418;DHT22;68007;51.312;12.372;2024-03-02T10:48:34;12.10;92.10
3418;DHT22;68007;51.312;12.372;2024-03-02T10:51:03;12.20;92.00
3418;DHT22;68007;51.312;12.372;2024-03-02T10:53:31;12.20;92.00
3418;DHT22;68007;51.312;12.372;2024-03-02T10:55:58;12.30;91.90
3418;DHT22;68007;51.312;12.372;2024-03-02T10:58:32;12.30;91.70
3418;DHT22;68007;51.312;12.372;2024-03-02T11:01:02;12.40;91.70
3418;DHT22;68007;51.312;12.372;2024-03-02T11:03:35;12.40;91.70
3418;DHT22;68007;51.312;12.372;2024-03-02T11:06:07;12.50;91.60
3418;DHT22;68007;51.312;12.372;2024-03-02T11:08:36;12.50;91.50
3418;DHT22;68007;51.312;12.372;2024-03-02T11:11:07;12.50;91.30
3418;DHT22;68007;51.312;12.372;2024-03-02T11:13:39;12.60;91.30
3418;DHT22;68007;51.312;12.372;2024-03-02T11:16:15;12.70;91.20
3418;DHT22;68007;51.312;12.372;2024-03-02T11:18:48;12.80;91.10
3418;DHT22;68007;51.312;12.372;2024-03-02T11:21:16;12.80;91.10
3418;DHT22;68007;51.312;12.372;2024-03-02T11:23:44;12.80;91.20
3418;DHT22;68007;51.312;12.372;2024-03-02T11:26:18;12.90;91.20
3418;DHT22;68007;51.312;12.372;2024-03-02T11:28:45;13.00;91.50
3418;DHT22;68007;51.312;12.372;2024-03-02T11:31:13;13.00;91.10
3418;DHT22;68007;51.312;12.372;2024-03-02T11:33:41;13.10;90.90
3418;DHT22;68007;51.312;12.372;2024-03-02T11:36:10;13.20;90.90
3418;DHT22;68007;51.312;12.372;2024-03-02T11:38:38;13.20;91.10
3418;DHT22;68007;51.312;12.372;2024-03-02T11:41:06;13.20;91.00
3418;DHT22;68007;51.312;12.372;2024-03-02T11:43:37;13.30;91.20
3418;DHT22;68007;51.312;12.372;2024-03-02T11:46:06;13.40;91.70
3418;DHT22;68007;51.312;12.372;2024-03-02T11:48:35;13.50;91.80
3418;DHT22;68007;51.312;12.372;2024-03-02T11:51:03;13.50;91.80
3418;DHT22;68007;51.312;12.372;2024-03-02T11:53:33;13.60;91.60
3418;DHT22;68007;51.312;12.372;2024-03-02T11:56:02;13.60;91.60
3418;DHT22;68007;51.312;12.372;2024-03-02T11:58:32;13.70;91.50
3418;DHT22;68007;51.312;12.372;2024-03-02T12:01:01;13.70;91.50
3418;DHT22;68007;51.312;12.372;2024-03-02T12:03:29;13.80;91.60
3418;DHT22;68007;51.312;12.372;2024-03-02T12:05:56;13.80;91.30
3418;DHT22;68007;51.312;12.372;2024-03-02T12:08:24;13.90;91.50
3418;DHT22;68007;51.312;12.372;2024-03-02T12:11:00;14.00;91.40
3418;DHT22;68007;51.312;12.372;2024-03-02T12:13:28;14.20;91.20
3418;DHT22;68007;51.312;12.372;2024-03-02T12:15:56;14.20;91.20
3418;DHT22;68007;51.312;12.372;2024-03-02T12:18:23;14.30;91.00
3418;DHT22;68007;51.312;12.372;2024-03-02T12:20:52;14.40;91.30
3418;DHT22;68007;51.312;12.372;2024-03-02T12:23:23;14.40;90.90
3418;DHT22;68007;51.312;12.372;2024-03-02T12:25:51;14.50;90.70
3418;DHT22;68007;51.312;12.372;2024-03-02T12:28:20;14.60;91.10
3418;DHT22;68007;51.312;12.372;2024-03-02T12:30:48;14.70;90.80
3418;DHT22;68007;51.312;12.372;2024-03-02T12:33:17;14.80;90.80
3418;DHT22;68007;51.312;12.372;2024-03-02T12:35:44;14.80;90.80
3418;DHT22;68007;51.312;12.372;2024-03-02T12:38:12;14.90;90.80
3418;DHT22;68007;51.312;12.372;2024-03-02T12:40:41;15.00;90.70
3418;DHT22;68007;51.312;12.372;2024-03-02T12:43:09;15.00;90.50
3418;DHT22;68007;51.312;12.372;2024-03-02T12:45:38;15.10;90.70
3418;DHT22;68007;51.312;12.372;2024-03-02T12:48:06;15.20;90.80
3418;DHT22;68007;51.312;12.372;2024-03-02T12:50:34;15.30;91.50
3418;DHT22;68007;51.312;12.372;2024-03-02T12:53:01;15.40;91.30
3418;DHT22;68007;51.312;12.372;2024-03-02T12:55:29;15.50;90.80
3418;DHT22;68007;51.312;12.372;2024-03-02T12:57:57;15.60;90.60
3418;DHT22;68007;51.312;12.372;2024-03-02T13:00:25;15.70;90.60
3418;DHT22;68007;51.312;12.372;2024-03-02T13:02:56;15.80;90.90
3418;DHT22;68007;51.312;12.372;2024-03-02T13:05:30;15.80;90.70
3418;DHT22;68007;51.312;12.372;2024-03-02T13:07:58;15.90;90.50
3418;DHT22;68007;51.312;12.372;2024-03-02T13:10:27;16.00;90.50
3418;DHT22;68007;51.312;12.372;2024-03-02T13:12:56;16.20;90.00
3418;DHT22;68007;51.312;12.372;2024-03-02T13:15:23;16.30;89.40
3418;DHT22;68007;51.312;12.372;2024-03-02T13:17:51;16.40;89.10
3418;DHT22;68007;51.312;12.372;2024-03-02T13:20:20;16.50;88.70
3418;DHT22;68007;51.312;12.372;2024-03-02T13:22:47;16.50;89.10
3418;DHT22;68007;51.312;12.372;2024-03-02T13:25:15;16.60;89.70
3418;DHT22;68007;51.312;12.372;2024-03-02T13:27:42;16.70;88.70
3418;DHT22;68007;51.312;12.372;2024-03-02T13:30:11;16.80;89.50
3418;DHT22;68007;51.312;12.372;2024-03-02T13:32:38;16.90;89.10
3418;DHT22;68007;51.312;12.372;2024-03-02T13:35:06;16.90;89.00
3418;DHT22;68007;51.312;12.372;2024-03-02T13:37:35;17.00;88.90
3418;DHT22;68007;51.312;12.372;2024-03-02T13:40:02;17.10;88.60
3418;DHT22;68007;51.312;12.372;2024-03-02T13:42:31;17.10;88.50
3418;DHT22;68007;51.312;12.372;2024-03-02T13:44:58;17.20;87.40
3418;DHT22;68007;51.312;12.372;2024-03-02T13:47:26;17.20;87.00
3418;DHT22;68007;51.312;12.372;2024-03-02T13:49:53;17.30;86.70
3418;DHT22;68007;51.312;12.372;2024-03-02T13:52:21;17.40;87.00
3418;DHT22;68007;51.312;12.372;2024-03-02T13:54:50;17.40;86.40
3418;DHT22;68007;51.312;12.372;2024-03-02T13:57:18;17.40;85.10
3418;DHT22;68007;51.312;12.372;2024-03-02T13:59:47;17.50;86.40
3418;DHT22;68007;51.312;12.372;2024-03-02T14:02:15;17.60;85.50
3418;DHT22;68007;51.312;12.372;2024-03-02T14:04:42;17.60;85.20
3418;DHT22;68007;51.312;12.372;2024-03-02T14:07:10;17.60;84.50
3418;DHT22;68007;51.312;12.372;2024-03-02T14:09:38;17.70;85.30
3418;DHT22;68007;51.312;12.372;2024-03-02T14:12:07;17.70;84.20
3418;DHT22;68007;51.312;12.372;2024-03-02T14:14:36;17.70;84.20
3418;DHT22;68007;51.312;12.372;2024-03-02T14:17:04;17.70;84.10
3418;DHT22;68007;51.312;12.372;2024-03-02T14:19:32;17.80;83.30
3418;DHT22;68007;51.312;12.372;2024-03-02T14:22:00;17.80;83.20
3418;DHT22;68007;51.312;12.372;2024-03-02T14:24:27;17.80;83.20
3418;DHT22;68007;51.312;12.372;2024-03-02T14:26:55;17.80;82.50
3418;DHT22;68007;51.312;12.372;2024-03-02T14:29:27;17.90;82.10
3418;DHT22;68007;51.312;12.372;2024-03-02T14:31:54;17.90;82.30
3418;DHT22;68007;51.312;12.372;2024-03-02T14:34:22;17.90;82.10
3418;DHT22;68007;51.312;12.372;2024-03-02T14:36:49;17.90;82.50
3418;DHT22;68007;51.312;12.372;2024-03-02T14:39:17;17.90;82.10
3418;DHT22;68007;51.312;12.372;2024-03-02T14:41:45;17.90;81.60
3418;DHT22;68007;51.312;12.372;2024-03-02T14:44:13;17.90;81.60
3418;DHT22;68007;51.312;12.372;2024-03-02T14:46:42;17.90;81.60
3418;DHT22;68007;51.312;12.372;2024-03-02T14:49:10;18.00;81.40
3418;DHT22;68007;51.312;12.372;2024-03-02T14:51:38;18.00;81.40
3418;DHT22;68007;51.312;12.372;2024-03-02T14:54:05;18.00;81.60
3418;DHT22;68007;51.312;12.372;2024-03-02T14:56:33;18.00;81.40
3418;DHT22;68007;51.312;12.372;2024-03-02T14:59:00;18.00;81.00
3418;DHT22;68007;51.312;12.372;2024-03-02T15:01:28;18.00;82.20
3418;DHT22;68007;51.312;12.372;2024-03-02T15:03:57;18.10;82.60
3418;DHT22;68007;51.312;12.372;2024-03-02T15:06:24;18.10;82.00
3418;DHT22;68007;51.312;12.372;2024-03-02T15:08:52;18.10;82.10
3418;DHT22;68007;51.312;12.372;2024-03-02T15:11:21;18.10;80.90
3418;DHT22;68007;51.312;12.372;2024-03-02T15:13:49;18.10;81.20
3418;DHT22;68007;51.312;12.372;2024-03-02T15:16:17;18.10;81.00
3418;DHT22;68007;51.312;12.372;2024-03-02T15:18:45;18.10;81.00
3418;DHT22;68007;51.312;12.372;2024-03-02T15:21:14;18.10;81.00
3418;DHT22;68007;51.312;12.372;2024-03-02T15:23:41;18.10;81.00
3418;DHT22;68007;51.312;12.372;2024-03-02T15:26:09;18.10;80.80
3418;DHT22;68007;51.312;12.372;2024-03-02T15:28:37;18.10;80.70
3418;DHT22;68007;51.312;12.372;2024-03-02T15:31:05;18.10;80.50
3418;DHT22;68007;51.312;12.372;2024-03-02T15:33:32;18.10;80.60
3418;DHT22;68007;51.312;12.372;2024-03-02T15:36:00;18.10;80.50
3418;DHT22;68007;51.312;12.372;2024-03-02T15:38:30;18.10;80.50